Blewett, Washington
Current Conditions -  °F | °C
As of 1:55 PM on Saturday 20 Dec 2014 (Local Time) from KEAT Reporting Station
Light Rain Light Rain  
Wind Chill: 36°   Ceiling: 300
Heat Index: 36°   Visibility: 6mi
Dew Point: 34°   Wind: 0mph
Humidity: 93%   Direction: NA
Pressure: 29.68"   Gusts: NA
Location:  47.7866°N, 120.856°W
Report Text: KEAT 202155Z AUTO 00000KT 6SM -RA BR OVC003 02/01 A2968 RMK AO2 RAB01E23B54UPB23E54SNE01 SLP059 P0001 T00220011
Loading
Personal Weather Stations






























Interactive Weather Map New forecast layout! Learn more

10-Day Weather Forecast

Advertisements
Track Severe Weather on mobile